Back to Top

Language: 

My Weather Underground Personal Weather Station Historical Data with Graphs...

Delerius Weather Station Historical Data
Daily Summary for December 25, 2017 Units:  Metric    English   Both
« Previous Day
Next Day »
Daily Weekly Monthly Yearly Custom
  High: Low: Average:
Temperature: 11.4 °C 4.7 °C 9.7 °C
Dew Point: 8.6 °C 3.2 °C 7.1 °C
Humidity: 92 % 77 % 84 %
Wind Speed: 33.8 km/h 3.2 km/h 19.8 km/h
Wind Gust: 62.8 km/h - -
Wind:- - SW
Pressure: 1009.7 hPa 989.7 hPa -
Precipitation: 1.78 mm    
Historical Graphs
 
 
Tabular Data for December 25, 2017
Time Temperature Dew Point Pressure Wind Wind Speed Wind Gust Humidity Rainfall Rate (Hourly) solar Conditions
00:00 10.8 °C 7.5 °C 1009.7 hPa SW 25.7 km/h 41.8 km/h 80 % 0 mm 0 W/m2
00:03 10.8 °C 7.5 °C 1009.7 hPa SW 24.1 km/h 33.8 km/h 80 % 0 mm 0 W/m2
00:07 10.8 °C 7.5 °C 1009.7 hPa WSW 30.6 km/h 45.1 km/h 80 % 0 mm 0 W/m2
00:12 10.8 °C 7.5 °C 1009.7 hPa WSW 24.1 km/h 38.6 km/h 80 % 0 mm 0 W/m2
00:13 10.8 °C 7.5 °C 1009.7 hPa WSW 24.1 km/h 38.6 km/h 80 % 0 mm 0 W/m2
00:18 10.9 °C 7.8 °C 1009.7 hPa SW 29 km/h 40.2 km/h 81 % 0 mm 0 W/m2
00:23 10.9 °C 7.8 °C 1009.7 hPa WSW 20.9 km/h 33.8 km/h 81 % 0 mm 0 W/m2
00:24 10.9 °C 7.8 °C 1009.7 hPa WSW 24.1 km/h 33.8 km/h 81 % 0 mm 0 W/m2
00:26 10.9 °C 7.8 °C 1009.7 hPa WSW 19.3 km/h 32.2 km/h 81 % 0 mm 0 W/m2
00:31 10.9 °C 7.8 °C 1009.4 hPa WSW 20.9 km/h 38.6 km/h 81 % 0 mm 0 W/m2
00:35 10.9 °C 7.8 °C 1009.7 hPa SW 25.7 km/h 38.6 km/h 81 % 0 mm 0 W/m2
00:36 10.9 °C 7.8 °C 1009.7 hPa SW 25.7 km/h 40.2 km/h 81 % 0 mm 0 W/m2
00:41 11 °C 7.9 °C 1009.7 hPa WSW 20.9 km/h 48.3 km/h 81 % 0 mm 0 W/m2
00:46 11.1 °C 7.8 °C 1009.4 hPa WSW 30.6 km/h 46.7 km/h 80 % 0 mm 0 W/m2
00:49 11.2 °C 7.9 °C 1009.7 hPa WSW 27.4 km/h 45.1 km/h 80 % 0 mm 0 W/m2
00:51 11.2 °C 7.9 °C 1009.7 hPa WSW 30.6 km/h 45.1 km/h 80 % 0 mm 0 W/m2
00:56 11.2 °C 7.7 °C 1009.4 hPa WSW 29 km/h 43.5 km/h 79 % 0 mm 0 W/m2
00:57 11.2 °C 7.7 °C 1009 hPa WSW 33.8 km/h 53.1 km/h 79 % 0 mm 0 W/m2
01:02 11.3 °C 7.6 °C 1009.4 hPa SW 25.7 km/h 43.5 km/h 78 % 0 mm 0 W/m2
01:04 11.3 °C 7.6 °C 1009 hPa SW 30.6 km/h 41.8 km/h 78 % 0 mm 0 W/m2
01:07 11.3 °C 7.6 °C 1009.4 hPa SW 29 km/h 40.2 km/h 78 % 0 mm 0 W/m2
01:12 11.3 °C 7.6 °C 1009 hPa SW 22.5 km/h 32.2 km/h 78 % 0 mm 0 W/m2
01:15 11.2 °C 7.5 °C 1009 hPa SW 29 km/h 43.5 km/h 78 % 0 mm 0 W/m2
01:20 11.2 °C 7.5 °C 1009 hPa SW 25.7 km/h 40.2 km/h 78 % 0 mm 0 W/m2
01:21 11.2 °C 7.5 °C 1008.7 hPa WSW 24.1 km/h 40.2 km/h 78 % 0 mm 0 W/m2
01:26 11.2 °C 7.7 °C 1008.7 hPa SW 24.1 km/h 38.6 km/h 79 % 0 mm 0 W/m2
01:27 11.2 °C 7.7 °C 1008.7 hPa SW 22.5 km/h 35.4 km/h 79 % 0 mm 0 W/m2
01:31 11.1 °C 7.4 °C 1008.7 hPa SW 24.1 km/h 40.2 km/h 78 % 0 mm 0 W/m2
01:36 11.1 °C 7.4 °C 1008.7 hPa SW 24.1 km/h 35.4 km/h 78 % 0 mm 0 W/m2
01:37 11.1 °C 7.4 °C 1008.7 hPa SW 24.1 km/h 35.4 km/h 78 % 0 mm 0 W/m2
01:42 11.1 °C 7.4 °C 1008.4 hPa SW 24.1 km/h 38.6 km/h 78 % 0 mm 0 W/m2
01:43 11.1 °C 7.4 °C 1008.4 hPa SW 25.7 km/h 38.6 km/h 78 % 0 mm 0 W/m2
01:47 11.1 °C 7.6 °C 1008.4 hPa SW 22.5 km/h 35.4 km/h 79 % 0 mm 0 W/m2
01:52 11 °C 7.5 °C 1008.4 hPa SW 25.7 km/h 48.3 km/h 79 % 0 mm 0 W/m2
01:55 11.1 °C 7.6 °C 1008.4 hPa SW 25.7 km/h 41.8 km/h 79 % 0 mm 0 W/m2
02:00 11.1 °C 7.6 °C 1008 hPa SW 33.8 km/h 46.7 km/h 79 % 0 mm 0 W/m2
02:01 11.1 °C 7.6 °C 1008.4 hPa SW 33.8 km/h 46.7 km/h 79 % 0 mm 0 W/m2
02:07 11.1 °C 7.6 °C 1008 hPa SW 24.1 km/h 38.6 km/h 79 % 0 mm 0 W/m2
02:09 11.1 °C 7.6 °C 1008.4 hPa SW 22.5 km/h 33.8 km/h 79 % 0 mm 0 W/m2
02:11 11.1 °C 7.6 °C 1008.4 hPa WSW 27.4 km/h 53.1 km/h 79 % 0 mm 0 W/m2
02:15 11.2 °C 7.7 °C 1008.4 hPa SW 22.5 km/h 32.2 km/h 79 % 0 mm 0 W/m2
02:20 11.2 °C 7.7 °C 1008 hPa SW 22.5 km/h 37 km/h 79 % 0 mm 0 W/m2
02:21 11.2 °C 7.7 °C 1008 hPa SW 29 km/h 41.8 km/h 79 % 0 mm 0 W/m2
02:26 11.1 °C 7.4 °C 1008 hPa SW 22.5 km/h 35.4 km/h 78 % 0 mm 0 W/m2
02:29 11.1 °C 7.4 °C 1007.7 hPa SW 27.4 km/h 43.5 km/h 78 % 0 mm 0 W/m2
02:32 11.1 °C 7.4 °C 1008 hPa SW 29 km/h 51.5 km/h 78 % 0 mm 0 W/m2
02:37 11.1 °C 7.4 °C 1008 hPa SW 27.4 km/h 45.1 km/h 78 % 0 mm 0 W/m2
02:42 11.1 °C 7.6 °C 1008 hPa SW 20.9 km/h 35.4 km/h 79 % 0 mm 0 W/m2
02:47 11.1 °C 7.6 °C 1008 hPa SSW 24.1 km/h 46.7 km/h 79 % 0 mm 0 W/m2
02:51 11.1 °C 7.6 °C 1007.7 hPa SW 27.4 km/h 38.6 km/h 79 % 0 mm 0 W/m2
02:52 11.2 °C 7.7 °C 1007.7 hPa SW 27.4 km/h 41.8 km/h 79 % 0 mm 0 W/m2
02:57 11.2 °C 7.7 °C 1007.7 hPa SW 25.7 km/h 37 km/h 79 % 0 mm 0 W/m2
02:58 11.2 °C 7.7 °C 1007.7 hPa SW 20.9 km/h 35.4 km/h 79 % 0 mm 0 W/m2
02:59 11.2 °C 7.7 °C 1007.7 hPa SW 19.3 km/h 35.4 km/h 79 % 0 mm 0 W/m2
03:04 11.1 °C 7.6 °C 1007.7 hPa SW 20.9 km/h 35.4 km/h 79 % 0 mm 0 W/m2
03:07 11.1 °C 7.6 °C 1007.7 hPa SW 22.5 km/h 32.2 km/h 79 % 0 mm 0 W/m2
03:10 11.1 °C 7.6 °C 1007.7 hPa SW 24.1 km/h 37 km/h 79 % 0 mm 0 W/m2
03:13 11.1 °C 7.6 °C 1007.7 hPa SW 22.5 km/h 35.4 km/h 79 % 0 mm 0 W/m2
03:18 11.2 °C 7.5 °C 1007.3 hPa SW 20.9 km/h 33.8 km/h 78 % 0 mm 0 W/m2
03:19 11.2 °C 7.5 °C 1007.3 hPa SW 20.9 km/h 33.8 km/h 78 % 0 mm 0 W/m2
03:22 11.2 °C 7.5 °C 1007.3 hPa SW 19.3 km/h 30.6 km/h 78 % 0 mm 0 W/m2
03:27 11.2 °C 7.5 °C 1007.3 hPa SW 20.9 km/h 33.8 km/h 78 % 0 mm 0 W/m2
03:28 11.2 °C 7.5 °C 1007.3 hPa WSW 19.3 km/h 32.2 km/h 78 % 0 mm 0 W/m2
03:33 11.2 °C 7.5 °C 1007.3 hPa SW 14.5 km/h 24.1 km/h 78 % 0 mm 0 W/m2
03:35 11.2 °C 7.5 °C 1007.3 hPa SW 17.7 km/h 24.1 km/h 78 % 0 mm 0 W/m2
03:41 11.2 °C 7.5 °C 1007.3 hPa SW 20.9 km/h 35.4 km/h 78 % 0 mm 0 W/m2
03:46 11.3 °C 7.6 °C 1007 hPa WSW 27.4 km/h 38.6 km/h 78 % 0 mm 0 W/m2
03:48 11.3 °C 7.6 °C 1007 hPa SW 22.5 km/h 38.6 km/h 78 % 0 mm 0 W/m2
03:53 11.4 °C 7.5 °C 1007 hPa SW 25.7 km/h 38.6 km/h 77 % 0 mm 0 W/m2
03:54 11.4 °C 7.5 °C 1007 hPa WSW 27.4 km/h 43.5 km/h 77 % 0 mm 0 W/m2
03:59 11.4 °C 7.5 °C 1007 hPa SW 27.4 km/h 46.7 km/h 77 % 0 mm 0 W/m2
04:03 11.4 °C 7.5 °C 1007 hPa SW 27.4 km/h 49.9 km/h 77 % 0 mm 0 W/m2
04:08 11.4 °C 7.5 °C 1006.7 hPa SW 32.2 km/h 46.7 km/h 77 % 0 mm 0 W/m2
04:13 11.4 °C 7.5 °C 1006.7 hPa SW 30.6 km/h 48.3 km/h 77 % 0 mm 0 W/m2
04:15 11.4 °C 7.5 °C 1006.7 hPa SW 27.4 km/h 48.3 km/h 77 % 0 mm 0 W/m2
04:18 11.4 °C 7.5 °C 1006.7 hPa SW 30.6 km/h 48.3 km/h 77 % 0 mm 0 W/m2
04:23 11.4 °C 7.5 °C 1006.3 hPa SW 24.1 km/h 40.2 km/h 77 % 0 mm 0 W/m2
04:24 11.3 °C 7.4 °C 1006.7 hPa SW 25.7 km/h 40.2 km/h 77 % 0 mm 0 W/m2
04:29 11.3 °C 7.4 °C 1006.7 hPa SW 29 km/h 43.5 km/h 77 % 0 mm 0 W/m2
04:32 11.3 °C 7.6 °C 1006.7 hPa WSW 25.7 km/h 40.2 km/h 78 % 0 mm 0 W/m2
04:33 11.3 °C 7.6 °C 1006.3 hPa WSW 25.7 km/h 40.2 km/h 78 % 0 mm 0 W/m2
04:38 11.3 °C 7.6 °C 1006.3 hPa WSW 24.1 km/h 35.4 km/h 78 % 0 mm 0 W/m2
04:39 11.3 °C 7.6 °C 1006.3 hPa SW 24.1 km/h 35.4 km/h 78 % 0 mm 0 W/m2
04:45 11.3 °C 7.6 °C 1006.3 hPa SW 19.3 km/h 30.6 km/h 78 % 0 mm 0 W/m2
04:47 11.2 °C 7.5 °C 1006.3 hPa SW 17.7 km/h 37 km/h 78 % 0 mm 0 W/m2
04:50 11.2 °C 7.7 °C 1006.3 hPa SW 24.1 km/h 38.6 km/h 79 % 0 mm 0 W/m2
05:03 11.2 °C 7.7 °C 1006 hPa SW 22.5 km/h 33.8 km/h 79 % 0 mm 0 W/m2
05:09 11.2 °C 7.7 °C 1005.6 hPa SW 25.7 km/h 38.6 km/h 79 % 0 mm 0 W/m2
05:14 11.1 °C 7.6 °C 1005.6 hPa SW 17.7 km/h 30.6 km/h 79 % 0 mm 0 W/m2
05:15 11.1 °C 7.6 °C 1005.6 hPa SW 20.9 km/h 35.4 km/h 79 % 0 mm 0 W/m2
05:20 11.1 °C 7.6 °C 1005.6 hPa SW 20.9 km/h 40.2 km/h 79 % 0 mm 0 W/m2
05:21 11.1 °C 7.8 °C 1005.6 hPa WSW 24.1 km/h 40.2 km/h 80 % 0 mm 0 W/m2
05:26 11.1 °C 7.8 °C 1005.3 hPa SW 19.3 km/h 25.7 km/h 80 % 0 mm 0 W/m2
05:27 11.1 °C 7.8 °C 1005.6 hPa SW 17.7 km/h 25.7 km/h 80 % 0 mm 0 W/m2
05:29 11.1 °C 7.8 °C 1005.3 hPa SW 20.9 km/h 35.4 km/h 80 % 0 mm 0 W/m2
05:34 11.1 °C 7.9 °C 1005.3 hPa SW 24.1 km/h 37 km/h 81 % 0 mm 0 W/m2
05:39 11 °C 8.1 °C 1005.3 hPa SW 24.1 km/h 35.4 km/h 82 % 0 mm 0 W/m2
05:41 11 °C 8.2 °C 1005.3 hPa SW 22.5 km/h 32.2 km/h 83 % 0 mm 0 W/m2
05:42 10.9 °C 8.1 °C 1005.3 hPa SW 20.9 km/h 32.2 km/h 83 % 0 mm 0 W/m2
05:47 10.8 °C 8.4 °C 1005.3 hPa SW 17.7 km/h 32.2 km/h 85 % 0 mm 0 W/m2
05:52 10.5 °C 8.4 °C 1005 hPa SW 20.9 km/h 35.4 km/h 87 % 0 mm 0 W/m2
05:59 10.4 °C 8.3 °C 1005 hPa SW 16.1 km/h 22.5 km/h 87 % 0 mm 0 W/m2
06:02 10.4 °C 8.3 °C 1005 hPa SW 22.5 km/h 33.8 km/h 87 % 0 mm 0 W/m2
06:07 10.5 °C 8.4 °C 1005 hPa SW 20.9 km/h 30.6 km/h 87 % 0 mm 0 W/m2
06:12 10.5 °C 8.4 °C 1005 hPa SW 25.7 km/h 35.4 km/h 87 % 0 mm 0 W/m2
06:15 10.4 °C 8.5 °C 1005 hPa SW 25.7 km/h 40.2 km/h 88 % 0 mm 0 W/m2
06:20 10.3 °C 8.4 °C 1005 hPa SW 16.1 km/h 22.5 km/h 88 % 0 mm 0 W/m2
06:21 10.3 °C 8.6 °C 1005 hPa SW 16.1 km/h 24.1 km/h 89 % 0 mm 0 W/m2
06:25 10.2 °C 8.4 °C 1005 hPa SW 17.7 km/h 30.6 km/h 89 % 0 mm 0 W/m2
06:29 10.2 °C 8.4 °C 1004.6 hPa SW 24.1 km/h 40.2 km/h 89 % 0 mm 0 W/m2
06:33 10.1 °C 8.4 °C 1004.6 hPa SW 20.9 km/h 30.6 km/h 89 % 0 mm 0 W/m2
06:34 10.1 °C 8.4 °C 1004.6 hPa SW 22.5 km/h 37 km/h 89 % 0 mm 0 W/m2
06:39 10.2 °C 8.3 °C 1004.6 hPa SW 17.7 km/h 30.6 km/h 88 % 0 mm 0 W/m2
06:40 10.2 °C 8.3 °C 1004.6 hPa SW 17.7 km/h 33.8 km/h 88 % 0 mm 0 W/m2
06:45 10.3 °C 8.2 °C 1004.6 hPa SW 24.1 km/h 43.5 km/h 87 % 0 mm 0 W/m2
06:50 10.4 °C 8 °C 1004.6 hPa SW 20.9 km/h 38.6 km/h 85 % 0 mm 0 W/m2
06:55 10.6 °C 7.8 °C 1004.6 hPa WSW 20.9 km/h 33.8 km/h 83 % 0 mm 0 W/m2
06:59 10.6 °C 7.8 °C 1004.6 hPa WSW 17.7 km/h 30.6 km/h 83 % 0 mm 0 W/m2
07:04 10.6 °C 7.7 °C 1004.6 hPa WSW 20.9 km/h 37 km/h 82 % 0 mm 0 W/m2
07:06 10.6 °C 7.7 °C 1004.6 hPa WSW 20.9 km/h 37 km/h 82 % 0 mm 0 W/m2
07:10 10.6 °C 7.7 °C 1004.6 hPa WSW 17.7 km/h 32.2 km/h 82 % 0 mm 0 W/m2
07:15 10.6 °C 7.7 °C 1004.6 hPa WSW 20.9 km/h 29 km/h 82 % 0 mm 0 W/m2
07:20 10.7 °C 7.8 °C 1004.3 hPa SW 19.3 km/h 41.8 km/h 82 % 0 mm 0 W/m2
07:21 10.7 °C 7.8 °C 1004.3 hPa SW 20.9 km/h 43.5 km/h 82 % 0 mm 0 W/m2
07:24 10.7 °C 7.6 °C 1004.3 hPa WSW 16.1 km/h 29 km/h 81 % 0 mm 0 W/m2
07:26 10.7 °C 7.6 °C 1004.3 hPa WSW 19.3 km/h 30.6 km/h 81 % 0 mm 0 W/m2
07:29 10.7 °C 7.6 °C 1004.3 hPa SW 19.3 km/h 37 km/h 81 % 0 mm 0 W/m2
07:34 10.7 °C 7.4 °C 1004.3 hPa SW 27.4 km/h 41.8 km/h 80 % 0 mm 0 W/m2
07:35 10.7 °C 7.4 °C 1004.3 hPa SW 24.1 km/h 35.4 km/h 80 % 0 mm 0 W/m2
07:36 10.8 °C 7.5 °C 1004.3 hPa SW 25.7 km/h 41.8 km/h 80 % 0 mm 0 W/m2
07:41 10.7 °C 7.4 °C 1003.9 hPa WSW 22.5 km/h 32.2 km/h 80 % 0 mm 0 W/m2
07:44 10.7 °C 7.6 °C 1003.9 hPa SW 17.7 km/h 25.7 km/h 81 % 0 mm 0 W/m2
07:49 10.6 °C 7.5 °C 1004.3 hPa SW 29 km/h 38.6 km/h 81 % 0 mm 0 W/m2
07:50 10.7 °C 7.6 °C 1003.9 hPa SW 22.5 km/h 38.6 km/h 81 % 0 mm 0 W/m2
07:55 10.7 °C 7.6 °C 1003.9 hPa SW 17.7 km/h 24.1 km/h 81 % 0 mm 0 W/m2
08:00 10.7 °C 7.6 °C 1003.9 hPa SW 16.1 km/h 25.7 km/h 81 % 0 mm 0 W/m2
08:05 10.7 °C 7.8 °C 1003.9 hPa SW 16.1 km/h 24.1 km/h 82 % 0 mm 0 W/m2
08:10 10.6 °C 7.8 °C 1003.9 hPa SW 16.1 km/h 24.1 km/h 83 % 0 mm 0 W/m2
08:11 10.6 °C 7.8 °C 1003.9 hPa SW 14.5 km/h 24.1 km/h 83 % 0 mm 0 W/m2
08:13 10.6 °C 8 °C 1003.9 hPa SW 11.3 km/h 20.9 km/h 84 % 0 mm 0 W/m2
08:18 10.4 °C 8 °C 1003.9 hPa SW 14.5 km/h 22.5 km/h 85 % 0 mm 0 W/m2
08:21 10.3 °C 8.1 °C 1003.6 hPa SSW 12.9 km/h 19.3 km/h 86 % 0 mm 0 W/m2
08:26 10.1 °C 8.1 °C 1003.6 hPa SSW 12.9 km/h 20.9 km/h 87 % 0 mm 5 W/m2
08:28 10 °C 8.1 °C 1003.6 hPa SSW 9.7 km/h 19.3 km/h 88 % 0 mm 7 W/m2
08:32 9.9 °C 8 °C 1003.3 hPa South 9.7 km/h 17.7 km/h 88 % 0 mm 9 W/m2
08:37 9.7 °C 8 °C 1003.3 hPa SSW 4.8 km/h 11.3 km/h 89 % 0 mm 9 W/m2
08:39 9.7 °C 8 °C 1003.3 hPa SSW 3.2 km/h 12.9 km/h 89 % 0 mm 11 W/m2
08:44 9.6 °C 8.1 °C 1003.3 hPa SSW 14.5 km/h 20.9 km/h 90 % 0 mm 11 W/m2
08:45 9.6 °C 8.1 °C 1003.3 hPa SSW 14.5 km/h 24.1 km/h 90 % 0 mm 12 W/m2
08:50 9.5 °C 7.8 °C 1003.3 hPa SW 12.9 km/h 17.7 km/h 89 % 0 mm 14 W/m2
08:55 9.6 °C 7.7 °C 1003.3 hPa SW 19.3 km/h 30.6 km/h 88 % 0 mm 21 W/m2
08:59 9.7 °C 7.8 °C 1003.3 hPa SW 20.9 km/h 38.6 km/h 88 % 0 mm 19 W/m2
09:01 9.8 °C 7.7 °C 1003.6 hPa SW 25.7 km/h 37 km/h 87 % 0 mm 21 W/m2
09:06 10 °C 7.8 °C 1003.6 hPa SW 22.5 km/h 33.8 km/h 86 % 0 mm 23 W/m2
09:07 10 °C 7.8 °C 1003.6 hPa SW 20.9 km/h 33.8 km/h 86 % 0 mm 30 W/m2
09:12 10.1 °C 7.9 °C 1003.6 hPa SSW 29 km/h 51.5 km/h 86 % 0 mm 19 W/m2
09:14 10.1 °C 7.9 °C 1003.6 hPa SSW 32.2 km/h 51.5 km/h 86 % 0 mm 23 W/m2
09:18 10.1 °C 7.9 °C 1003.3 hPa SW 19.3 km/h 33.8 km/h 86 % 0 mm 35 W/m2
09:23 10.1 °C 7.7 °C 1003.6 hPa SW 25.7 km/h 40.2 km/h 85 % 0 mm 25 W/m2
09:24 10.1 °C 7.7 °C 1003.6 hPa SW 27.4 km/h 40.2 km/h 85 % 0 mm 23 W/m2
09:29 10.2 °C 7.8 °C 1003.6 hPa SSW 24.1 km/h 38.6 km/h 85 % 0 mm 28 W/m2
09:30 10.2 °C 7.8 °C 1003.6 hPa SW 24.1 km/h 38.6 km/h 85 % 0 mm 30 W/m2
09:35 10.2 °C 7.8 °C 1003.3 hPa SSW 24.1 km/h 37 km/h 85 % 0 mm 30 W/m2
09:36 10.2 °C 7.8 °C 1003.3 hPa SSW 24.1 km/h 37 km/h 85 % 0 mm 25 W/m2
09:41 10.3 °C 7.9 °C 1003.3 hPa SSW 22.5 km/h 37 km/h 85 % 0 mm 19 W/m2
09:42 10.3 °C 7.9 °C 1003.3 hPa SSW 20.9 km/h 37 km/h 85 % 0 mm 19 W/m2
09:47 10.3 °C 7.9 °C 1003.3 hPa SSW 17.7 km/h 24.1 km/h 85 % 0 mm 19 W/m2
09:52 10.3 °C 7.9 °C 1003.3 hPa SSW 19.3 km/h 29 km/h 85 % 0 mm 19 W/m2
09:57 10.3 °C 7.9 °C 1002.9 hPa SSW 19.3 km/h 33.8 km/h 85 % 0 mm 25 W/m2
09:58 10.3 °C 7.9 °C 1003.3 hPa SSW 17.7 km/h 33.8 km/h 85 % 0 mm 28 W/m2
10:03 10.3 °C 7.9 °C 1003.3 hPa South 14.5 km/h 19.3 km/h 85 % 0 mm 21 W/m2
10:06 10.2 °C 7.8 °C 1002.9 hPa South 14.5 km/h 22.5 km/h 85 % 0 mm 18 W/m2
10:10 10.2 °C 7.9 °C 1003.3 hPa SSW 8 km/h 14.5 km/h 86 % 0 mm 18 W/m2
10:11 10.2 °C 7.9 °C 1003.3 hPa SSW 11.3 km/h 22.5 km/h 86 % 0 mm 18 W/m2
10:16 10.2 °C 7.9 °C 1002.9 hPa South 14.5 km/h 20.9 km/h 86 % 0 mm 21 W/m2
10:21 10.1 °C 7.9 °C 1002.9 hPa SSW 12.9 km/h 25.7 km/h 86 % 0 mm 21 W/m2
10:25 10.1 °C 8.1 °C 1002.9 hPa South 8 km/h 12.9 km/h 87 % 0 mm 14 W/m2
10:30 10.1 °C 8.1 °C 1002.9 hPa SSW 8 km/h 14.5 km/h 87 % 0 mm 28 W/m2
10:33 10.1 °C 8.1 °C 1002.6 hPa South 14.5 km/h 22.5 km/h 87 % 0 mm 33 W/m2
10:38 10.1 °C 8.1 °C 1002.6 hPa South 16.1 km/h 24.1 km/h 87 % 0 mm 23 W/m2
10:40 10.1 °C 8.1 °C 1002.6 hPa South 9.7 km/h 19.3 km/h 87 % 0 mm 16 W/m2
10:41 10.1 °C 8.1 °C 1002.6 hPa South 9.7 km/h 19.3 km/h 87 % 0 mm 16 W/m2
10:45 10.1 °C 8.1 °C 1002.6 hPa SSW 14.5 km/h 25.7 km/h 87 % 0 mm 14 W/m2
10:50 10.1 °C 8.1 °C 1002.6 hPa SSW 25.7 km/h 51.5 km/h 87 % 0 mm 19 W/m2
10:54 10.2 °C 8.1 °C 1002.3 hPa SSW 17.7 km/h 30.6 km/h 87 % 0 mm 19 W/m2
10:59 10.1 °C 8.2 °C 1002.6 hPa SW 12.9 km/h 19.3 km/h 88 % 0 mm 18 W/m2
11:01 10 °C 8.1 °C 1002.6 hPa SW 14.5 km/h 30.6 km/h 88 % 0 mm 16 W/m2
11:05 9.9 °C 8.2 °C 1002.3 hPa SW 14.5 km/h 20.9 km/h 89 % 0 mm 21 W/m2
11:10 9.9 °C 8.2 °C 1002.3 hPa South 11.3 km/h 22.5 km/h 89 % 0 mm 37 W/m2
11:11 9.9 °C 8.2 °C 1002.3 hPa South 12.9 km/h 24.1 km/h 89 % 0 mm 40 W/m2
11:16 9.9 °C 8 °C 1001.9 hPa SSW 16.1 km/h 25.7 km/h 88 % 0 mm 49 W/m2
11:21 10 °C 8.1 °C 1001.9 hPa SSW 11.3 km/h 22.5 km/h 88 % 0 mm 60 W/m2
11:26 10.1 °C 8.1 °C 1001.6 hPa SSW 12.9 km/h 22.5 km/h 87 % 0 mm 72 W/m2
11:27 10.1 °C 8.1 °C 1001.6 hPa SSW 14.5 km/h 29 km/h 87 % 0 mm 72 W/m2
11:29 10.1 °C 7.9 °C 1001.6 hPa SSW 17.7 km/h 29 km/h 86 % 0 mm 132 W/m2
11:33 10.3 °C 8.1 °C 1001.6 hPa SSW 9.7 km/h 14.5 km/h 86 % 0 mm 113 W/m2
11:38 10.3 °C 7.9 °C 1001.6 hPa South 19.3 km/h 32.2 km/h 85 % 0 mm 65 W/m2
11:42 10.4 °C 7.8 °C 1001.2 hPa SSW 16.1 km/h 25.7 km/h 84 % 0 mm 100 W/m2
11:47 10.4 °C 7.6 °C 1001.2 hPa South 16.1 km/h 30.6 km/h 83 % 0 mm 77 W/m2
11:48 10.4 °C 7.6 °C 1001.2 hPa South 11.3 km/h 16.1 km/h 83 % 0 mm 84 W/m2
11:53 10.6 °C 7.8 °C 1000.9 hPa SSW 14.5 km/h 29 km/h 83 % 0 mm 130 W/m2
11:54 10.6 °C 7.8 °C 1000.9 hPa SSW 14.5 km/h 29 km/h 83 % 0 mm 125 W/m2
11:56 10.6 °C 7.8 °C 1000.6 hPa SW 8 km/h 19.3 km/h 83 % 0 mm 114 W/m2
12:00 10.7 °C 7.9 °C 1000.6 hPa SSW 9.7 km/h 14.5 km/h 83 % 0 mm 121 W/m2
12:05 10.8 °C 7.8 °C 1000.6 hPa SSW 12.9 km/h 20.9 km/h 82 % 0 mm 72 W/m2
12:07 10.8 °C 7.8 °C 1000.6 hPa SSW 16.1 km/h 22.5 km/h 82 % 0 mm 54 W/m2
12:11 10.8 °C 7.8 °C 1000.6 hPa SSW 12.9 km/h 24.1 km/h 82 % 0 mm 42 W/m2
12:13 10.8 °C 7.8 °C 1000.6 hPa SW 12.9 km/h 20.9 km/h 82 % 0 mm 46 W/m2
12:18 10.9 °C 7.9 °C 1000.6 hPa SSW 17.7 km/h 33.8 km/h 82 % 0 mm 49 W/m2
12:23 10.8 °C 7.8 °C 1000.2 hPa SSW 12.9 km/h 22.5 km/h 82 % 0 mm 32 W/m2
12:26 10.8 °C 8 °C 1000.2 hPa SW 17.7 km/h 29 km/h 83 % 0 mm 28 W/m2
12:31 10.6 °C 7.8 °C 999.9 hPa South 17.7 km/h 35.4 km/h 83 % 0 mm 21 W/m2
12:33 10.6 °C 8 °C 1000.2 hPa SSW 14.5 km/h 25.7 km/h 84 % 0 mm 25 W/m2
12:35 10.6 °C 8 °C 999.9 hPa SSW 11.3 km/h 22.5 km/h 84 % 0 mm 30 W/m2
12:38 10.5 °C 8.1 °C 999.9 hPa SSW 9.7 km/h 16.1 km/h 85 % 0 mm 30 W/m2
12:41 10.4 °C 8 °C 999.9 hPa South 12.9 km/h 22.5 km/h 85 % 0 mm 26 W/m2
12:46 10.3 °C 7.9 °C 999.5 hPa South 11.3 km/h 20.9 km/h 85 % 0 mm 54 W/m2
12:51 10.3 °C 8.1 °C 999.5 hPa South 14.5 km/h 24.1 km/h 86 % 0 mm 49 W/m2
12:52 10.3 °C 8.1 °C 999.2 hPa South 11.3 km/h 20.9 km/h 86 % 0 mm 47 W/m2
12:57 10.5 °C 8.1 °C 999.2 hPa SSW 22.5 km/h 33.8 km/h 85 % 0 mm 171 W/m2
12:59 10.6 °C 8.2 °C 999.2 hPa SSW 16.1 km/h 29 km/h 85 % 0 mm 120 W/m2
13:02 10.7 °C 8.3 °C 999.2 hPa SSW 14.5 km/h 24.1 km/h 85 % 0 mm 74 W/m2
13:05 10.7 °C 8.1 °C 998.9 hPa SSW 17.7 km/h 30.6 km/h 84 % 0 mm 97 W/m2
13:08 10.8 °C 8.2 °C 999.2 hPa SSW 17.7 km/h 33.8 km/h 84 % 0 mm 83 W/m2
13:10 10.8 °C 8 °C 998.9 hPa South 24.1 km/h 43.5 km/h 83 % 0 mm 53 W/m2
13:15 10.8 °C 8 °C 998.9 hPa SSW 19.3 km/h 35.4 km/h 83 % 0 mm 53 W/m2
13:18 10.8 °C 8 °C 998.5 hPa SSW 20.9 km/h 30.6 km/h 83 % 0 mm 74 W/m2
13:23 10.8 °C 8 °C 998.5 hPa SSW 19.3 km/h 33.8 km/h 83 % 0 mm 56 W/m2
13:27 10.8 °C 8 °C 998.5 hPa SSW 17.7 km/h 30.6 km/h 83 % 0 mm 58 W/m2
13:31 10.8 °C 8 °C 998.5 hPa South 19.3 km/h 37 km/h 83 % 0 mm 69 W/m2
13:36 10.8 °C 8 °C 998.2 hPa SSW 16.1 km/h 30.6 km/h 83 % 0 mm 79 W/m2
13:38 10.9 °C 8.1 °C 998.2 hPa SSW 20.9 km/h 33.8 km/h 83 % 0 mm 81 W/m2
13:41 10.9 °C 8.1 °C 998.2 hPa SW 14.5 km/h 32.2 km/h 83 % 0 mm 58 W/m2
13:44 10.9 °C 7.9 °C 998.2 hPa SSW 19.3 km/h 32.2 km/h 82 % 0 mm 70 W/m2
13:49 10.9 °C 7.9 °C 997.9 hPa SSW 17.7 km/h 40.2 km/h 82 % 0 mm 105 W/m2
13:50 10.9 °C 7.9 °C 997.9 hPa SSW 22.5 km/h 40.2 km/h 82 % 0 mm 86 W/m2
13:51 10.9 °C 7.9 °C 997.9 hPa SSW 22.5 km/h 40.2 km/h 82 % 0 mm 86 W/m2
13:56 11 °C 7.9 °C 997.9 hPa SSW 20.9 km/h 30.6 km/h 81 % 0 mm 155 W/m2
13:57 11 °C 7.9 °C 997.9 hPa SSW 22.5 km/h 33.8 km/h 81 % 0 mm 116 W/m2
13:58 11 °C 7.9 °C 997.9 hPa SSW 22.5 km/h 33.8 km/h 81 % 0 mm 105 W/m2
14:03 11.1 °C 7.9 °C 997.5 hPa SSW 19.3 km/h 32.2 km/h 81 % 0 mm 118 W/m2
14:05 11.1 °C 7.9 °C 997.5 hPa SSW 20.9 km/h 35.4 km/h 81 % 0 mm 121 W/m2
14:10 11.1 °C 7.8 °C 997.2 hPa SSW 20.9 km/h 33.8 km/h 80 % 0 mm 72 W/m2
14:12 11.1 °C 7.8 °C 997.2 hPa SSW 19.3 km/h 33.8 km/h 80 % 0 mm 65 W/m2
14:17 11 °C 7.7 °C 997.2 hPa SW 24.1 km/h 40.2 km/h 80 % 0 mm 109 W/m2
14:22 10.9 °C 7.6 °C 996.8 hPa SSW 20.9 km/h 33.8 km/h 80 % 0 mm 40 W/m2
14:23 10.9 °C 7.6 °C 996.8 hPa SSW 20.9 km/h 33.8 km/h 80 % 0 mm 40 W/m2
14:28 10.9 °C 7.6 °C 996.8 hPa SW 25.7 km/h 40.2 km/h 80 % 0 mm 42 W/m2
14:33 10.8 °C 7.5 °C 996.5 hPa SW 19.3 km/h 38.6 km/h 80 % 0 mm 30 W/m2
14:34 10.8 °C 7.5 °C 996.5 hPa SSW 19.3 km/h 38.6 km/h 80 % 0 mm 30 W/m2
14:36 10.8 °C 7.5 °C 996.5 hPa SSW 17.7 km/h 33.8 km/h 80 % 0 mm 26 W/m2
14:41 10.7 °C 7.4 °C 996.2 hPa SSW 17.7 km/h 30.6 km/h 80 % 0 mm 33 W/m2
14:46 10.6 °C 7.5 °C 996.2 hPa South 22.5 km/h 41.8 km/h 81 % 0 mm 21 W/m2
14:51 10.6 °C 7.5 °C 996.2 hPa SSW 24.1 km/h 35.4 km/h 81 % 0 mm 19 W/m2
14:52 10.6 °C 7.5 °C 996.2 hPa SSW 22.5 km/h 35.4 km/h 81 % 0 mm 18 W/m2
14:57 10.6 °C 7.5 °C 995.8 hPa SSW 17.7 km/h 38.6 km/h 81 % 0 mm 18 W/m2
14:58 10.6 °C 7.5 °C 995.8 hPa SSW 19.3 km/h 38.6 km/h 81 % 0 mm 18 W/m2
15:03 10.6 °C 7.7 °C 995.8 hPa South 22.5 km/h 38.6 km/h 82 % 0 mm 26 W/m2
15:04 10.5 °C 7.6 °C 995.8 hPa SSW 20.9 km/h 30.6 km/h 82 % 0 mm 28 W/m2
15:09 10.5 °C 7.6 °C 995.8 hPa SSW 17.7 km/h 25.7 km/h 82 % 0 mm 26 W/m2
15:14 10.5 °C 7.6 °C 995.5 hPa SSW 27.4 km/h 41.8 km/h 82 % 0 mm 19 W/m2
15:15 10.5 °C 7.6 °C 995.5 hPa SSW 24.1 km/h 38.6 km/h 82 % 0 mm 19 W/m2
15:19 10.4 °C 7.4 °C 995.5 hPa SSW 20.9 km/h 32.2 km/h 82 % 0 mm 12 W/m2
15:22 10.4 °C 7.4 °C 995.5 hPa SSW 22.5 km/h 35.4 km/h 82 % 0 mm 11 W/m2
15:27 10.4 °C 7.4 °C 995.5 hPa SSW 24.1 km/h 37 km/h 82 % 0 mm 9 W/m2
15:28 10.4 °C 7.4 °C 995.5 hPa SSW 27.4 km/h 48.3 km/h 82 % 0 mm 9 W/m2
15:33 10.4 °C 7.4 °C 995.5 hPa SSW 29 km/h 38.6 km/h 82 % 0 mm 7 W/m2
15:37 10.4 °C 7.4 °C 995.1 hPa SSW 24.1 km/h 38.6 km/h 82 % 0 mm 5 W/m2
15:41 10.4 °C 7.4 °C 995.1 hPa SSW 17.7 km/h 30.6 km/h 82 % 0 mm 0 W/m2
15:43 10.4 °C 7.4 °C 995.1 hPa SSW 22.5 km/h 40.2 km/h 82 % 0 mm 0 W/m2
15:44 10.4 °C 7.4 °C 995.1 hPa SSW 20.9 km/h 37 km/h 82 % 0 mm 0 W/m2
15:47 10.4 °C 7.4 °C 995.1 hPa South 19.3 km/h 35.4 km/h 82 % 0 mm 0 W/m2
15:52 10.5 °C 7.6 °C 994.8 hPa South 22.5 km/h 37 km/h 82 % 0 mm 0 W/m2
15:53 10.5 °C 7.6 °C 994.8 hPa South 22.5 km/h 37 km/h 82 % 0 mm 0 W/m2
15:58 10.6 °C 7.7 °C 994.5 hPa SSW 20.9 km/h 33.8 km/h 82 % 0 mm 0 W/m2
16:03 10.4 °C 7.4 °C 994.5 hPa SSW 19.3 km/h 41.8 km/h 82 % 0 mm 0 W/m2
16:04 10.4 °C 7.4 °C 994.5 hPa SSW 19.3 km/h 41.8 km/h 82 % 0 mm 0 W/m2
16:09 10.5 °C 7.6 °C 994.1 hPa SSW 32.2 km/h 53.1 km/h 82 % 0 mm 0 W/m2
16:11 10.5 °C 7.6 °C 994.1 hPa SSW 22.5 km/h 38.6 km/h 82 % 0 mm 0 W/m2
16:16 10.5 °C 7.6 °C 994.1 hPa SSW 25.7 km/h 43.5 km/h 82 % 0 mm 0 W/m2
16:20 10.5 °C 7.6 °C 993.8 hPa SSW 25.7 km/h 43.5 km/h 82 % 0 mm 0 W/m2
16:25 10.5 °C 7.6 °C 993.8 hPa SSW 22.5 km/h 37 km/h 82 % 0 mm 0 W/m2
16:30 10.5 °C 7.6 °C 993.5 hPa SSW 29 km/h 41.8 km/h 82 % 0 mm 0 W/m2
16:35 10.4 °C 7.4 °C 993.5 hPa SSW 20.9 km/h 40.2 km/h 82 % 0 mm 0 W/m2
16:40 10.4 °C 7.4 °C 993.5 hPa SSW 25.7 km/h 45.1 km/h 82 % 0 mm 0 W/m2
16:44 10.3 °C 7.3 °C 993.5 hPa SSW 24.1 km/h 43.5 km/h 82 % 0 mm 0 W/m2
16:50 10.3 °C 7.3 °C 993.1 hPa SSW 24.1 km/h 45.1 km/h 82 % 0 mm 0 W/m2
16:54 10.3 °C 7.3 °C 993.1 hPa SSW 20.9 km/h 30.6 km/h 82 % 0 mm 0 W/m2
16:58 10.3 °C 7.6 °C 993.1 hPa SSW 17.7 km/h 29 km/h 83 % 0 mm 0 W/m2
17:03 10.3 °C 7.6 °C 993.1 hPa SSW 22.5 km/h 41.8 km/h 83 % 0 mm 0 W/m2
17:04 10.3 °C 7.6 °C 993.1 hPa SSW 22.5 km/h 41.8 km/h 83 % 0 mm 0 W/m2
17:05 10.3 °C 7.6 °C 992.8 hPa SSW 16.1 km/h 22.5 km/h 83 % 0 mm 0 W/m2
17:10 10.4 °C 7.6 °C 992.8 hPa SSW 19.3 km/h 33.8 km/h 83 % 0 mm 0 W/m2
17:11 10.4 °C 7.6 °C 992.8 hPa SSW 22.5 km/h 40.2 km/h 83 % 0 mm 0 W/m2
17:13 10.4 °C 7.6 °C 992.8 hPa SSW 24.1 km/h 40.2 km/h 83 % 0 mm 0 W/m2
17:18 10.5 °C 7.6 °C 992.4 hPa SSW 22.5 km/h 38.6 km/h 82 % 0 mm 0 W/m2
17:23 10.6 °C 7.7 °C 992.4 hPa SSW 27.4 km/h 46.7 km/h 82 % 0 mm 0 W/m2
17:26 10.6 °C 7.7 °C 992.4 hPa SSW 24.1 km/h 40.2 km/h 82 % 0 mm 0 W/m2
17:29 10.7 °C 7.8 °C 992.4 hPa SSW 20.9 km/h 41.8 km/h 82 % 0 mm 0 W/m2
17:33 10.6 °C 7.7 °C 992.1 hPa SSW 16.1 km/h 25.7 km/h 82 % 0 mm 0 W/m2
17:36 10.6 °C 7.7 °C 992.1 hPa SSW 25.7 km/h 38.6 km/h 82 % 0 mm 0 W/m2
17:41 10.6 °C 7.7 °C 992.1 hPa SSW 19.3 km/h 37 km/h 82 % 0 mm 0 W/m2
17:43 10.6 °C 7.7 °C 992.1 hPa SSW 25.7 km/h 37 km/h 82 % 0 mm 0 W/m2
17:48 10.6 °C 7.7 °C 991.8 hPa SSW 24.1 km/h 37 km/h 82 % 0 mm 0 W/m2
17:49 10.6 °C 7.7 °C 991.8 hPa SSW 24.1 km/h 37 km/h 82 % 0 mm 0 W/m2
17:54 10.6 °C 7.7 °C 991.8 hPa SSW 20.9 km/h 37 km/h 82 % 0 mm 0 W/m2
17:59 10.6 °C 7.7 °C 991.8 hPa South 19.3 km/h 30.6 km/h 82 % 0 mm 0 W/m2
18:01 10.6 °C 7.7 °C 991.8 hPa South 19.3 km/h 40.2 km/h 82 % 0 mm 0 W/m2
18:05 10.6 °C 7.8 °C 991.4 hPa South 22.5 km/h 38.6 km/h 83 % 0 mm 0 W/m2
18:07 10.6 °C 7.8 °C 991.4 hPa South 17.7 km/h 38.6 km/h 83 % 0 mm 0 W/m2
18:12 10.7 °C 7.9 °C 991.4 hPa SSW 16.1 km/h 25.7 km/h 83 % 0 mm 0 W/m2
18:14 10.7 °C 7.9 °C 991.1 hPa South 14.5 km/h 29 km/h 83 % 0 mm 0 W/m2
18:19 10.6 °C 7.8 °C 991.1 hPa SSW 17.7 km/h 33.8 km/h 83 % 0 mm 0 W/m2
18:20 10.7 °C 7.9 °C 991.4 hPa SSW 24.1 km/h 62.8 km/h 83 % 0 mm 0 W/m2
18:25 10.7 °C 7.8 °C 991.1 hPa SSW 20.9 km/h 35.4 km/h 82 % 0 mm 0 W/m2
18:28 10.8 °C 7.8 °C 991.1 hPa SSW 20.9 km/h 35.4 km/h 82 % 0 mm 0 W/m2
18:33 10.8 °C 7.8 °C 991.1 hPa SSW 22.5 km/h 38.6 km/h 82 % 0 mm 0 W/m2
18:34 10.8 °C 7.7 °C 991.1 hPa South 24.1 km/h 38.6 km/h 81 % 0 mm 0 W/m2
18:39 10.8 °C 7.7 °C 990.7 hPa SSW 22.5 km/h 38.6 km/h 81 % 0 mm 0 W/m2
18:40 10.8 °C 7.7 °C 990.7 hPa SSW 20.9 km/h 37 km/h 81 % 0 mm 0 W/m2
18:45 10.8 °C 7.7 °C 990.7 hPa SSW 19.3 km/h 37 km/h 81 % 0 mm 0 W/m2
18:46 10.8 °C 7.7 °C 990.7 hPa SSW 20.9 km/h 37 km/h 81 % 0 mm 0 W/m2
18:49 10.8 °C 7.7 °C 990.7 hPa SSW 20.9 km/h 40.2 km/h 81 % 0 mm 0 W/m2
18:52 10.8 °C 7.7 °C 990.7 hPa SSW 24.1 km/h 35.4 km/h 81 % 0 mm 0 W/m2
18:58 10.8 °C 7.7 °C 990.7 hPa SW 25.7 km/h 33.8 km/h 81 % 0 mm 0 W/m2
19:03 10.7 °C 7.8 °C 990.7 hPa SW 17.7 km/h 25.7 km/h 82 % 0 mm 0 W/m2
19:04 10.7 °C 7.8 °C 990.7 hPa SW 14.5 km/h 24.1 km/h 82 % 0 mm 0 W/m2
19:09 10.6 °C 7.8 °C 990.7 hPa WSW 14.5 km/h 20.9 km/h 83 % 0 mm 0 W/m2
19:14 10.1 °C 7.2 °C 990.7 hPa WNW 11.3 km/h 16.1 km/h 82 % 0.25 mm 0 W/m2
19:18 9.7 °C 6.9 °C 990.4 hPa WNW 9.7 km/h 17.7 km/h 83 % 0.25 mm 0 W/m2
19:23 9.2 °C 6.8 °C 990.4 hPa WNW 9.7 km/h 14.5 km/h 85 % 0.25 mm 0 W/m2
19:25 9 °C 6.8 °C 990.7 hPa WNW 11.3 km/h 17.7 km/h 86 % 0.51 mm 0 W/m2
19:26 8.9 °C 6.7 °C 990.7 hPa WNW 9.7 km/h 17.7 km/h 86 % 0.51 mm 0 W/m2
19:31 8.6 °C 6.7 °C 990.4 hPa West 12.9 km/h 17.7 km/h 88 % 0.76 mm 0 W/m2
19:33 8.4 °C 6.5 °C 990.4 hPa WNW 12.9 km/h 19.3 km/h 88 % 0.76 mm 0 W/m2
19:38 8.2 °C 6.5 °C 990.7 hPa West 11.3 km/h 19.3 km/h 89 % 1.02 mm 0 W/m2
19:41 8.1 °C 6.6 °C 990.7 hPa West 12.9 km/h 20.9 km/h 90 % 1.02 mm 0 W/m2
19:44 7.9 °C 6.3 °C 990.4 hPa West 12.9 km/h 25.7 km/h 90 % 1.27 mm 0 W/m2
19:49 7.7 °C 6.2 °C 990.4 hPa West 16.1 km/h 22.5 km/h 90 % 1.27 mm 0 W/m2
19:51 7.7 °C 6.2 °C 990.4 hPa West 12.9 km/h 19.3 km/h 90 % 1.27 mm 0 W/m2
19:56 7.5 °C 6.1 °C 990.4 hPa West 11.3 km/h 16.1 km/h 91 % 1.27 mm 0 W/m2
19:58 7.4 °C 6 °C 990.4 hPa West 12.9 km/h 19.3 km/h 91 % 1.27 mm 0 W/m2
20:03 7.3 °C 5.9 °C 990.4 hPa WNW 14.5 km/h 22.5 km/h 91 % 1.52 mm 0 W/m2
20:04 7.3 °C 5.9 °C 990.4 hPa WNW 16.1 km/h 24.1 km/h 91 % 1.52 mm 0 W/m2
20:06 7.2 °C 5.8 °C 990.4 hPa WNW 17.7 km/h 25.7 km/h 91 % 1.52 mm 0 W/m2
20:11 7 °C 5.6 °C 990.4 hPa WNW 16.1 km/h 20.9 km/h 91 % 1.27 mm 0 W/m2
20:16 6.8 °C 5.4 °C 990.4 hPa WNW 14.5 km/h 22.5 km/h 91 % 1.27 mm 0 W/m2
20:17 6.8 °C 5.4 °C 990.4 hPa WNW 12.9 km/h 20.9 km/h 91 % 1.27 mm 0 W/m2
20:22 6.6 °C 5.2 °C 990.4 hPa WNW 20.9 km/h 30.6 km/h 91 % 1.52 mm 0 W/m2
20:25 6.6 °C 5.2 °C 990.4 hPa WNW 16.1 km/h 24.1 km/h 91 % 1.27 mm 0 W/m2
20:30 6.3 °C 4.9 °C 990.4 hPa WNW 20.9 km/h 32.2 km/h 91 % 0.76 mm 0 W/m2
20:31 6.3 °C 4.9 °C 990.4 hPa WNW 20.9 km/h 32.2 km/h 91 % 0.76 mm 0 W/m2
20:36 6.2 °C 4.8 °C 990.4 hPa WNW 19.3 km/h 30.6 km/h 91 % 0.76 mm 0 W/m2
20:41 5.8 °C 4.3 °C 990.4 hPa West 20.9 km/h 30.6 km/h 90 % 0.51 mm 0 W/m2
20:42 5.7 °C 4.2 °C 990.4 hPa WNW 19.3 km/h 30.6 km/h 90 % 0.51 mm 0 W/m2
20:43 5.7 °C 4.2 °C 990.4 hPa WNW 19.3 km/h 29 km/h 90 % 0.51 mm 0 W/m2
20:48 5.5 °C 4 °C 990.4 hPa WNW 17.7 km/h 30.6 km/h 90 % 0.51 mm 0 W/m2
20:53 5.3 °C 3.8 °C 990.4 hPa WNW 17.7 km/h 32.2 km/h 90 % 0.51 mm 0 W/m2
20:58 5.2 °C 3.7 °C 990.4 hPa WNW 22.5 km/h 32.2 km/h 90 % 0.51 mm 0 W/m2
20:59 5.2 °C 3.7 °C 990.1 hPa WNW 20.9 km/h 29 km/h 90 % 0.51 mm 0 W/m2
21:05 5.1 °C 3.6 °C 990.1 hPa WNW 17.7 km/h 25.7 km/h 90 % 0.51 mm 0 W/m2
21:09 5 °C 3.7 °C 990.1 hPa WNW 14.5 km/h 19.3 km/h 91 % 0.51 mm 0 W/m2
21:12 4.9 °C 3.6 °C 990.1 hPa WNW 16.1 km/h 24.1 km/h 91 % 0.51 mm 0 W/m2
21:17 4.9 °C 3.6 °C 990.1 hPa WNW 17.7 km/h 29 km/h 91 % 0.51 mm 0 W/m2
21:20 4.9 °C 3.6 °C 990.1 hPa WNW 14.5 km/h 24.1 km/h 91 % 0.25 mm 0 W/m2
21:25 4.8 °C 3.4 °C 990.1 hPa West 11.3 km/h 17.7 km/h 91 % 0.25 mm 0 W/m2
21:26 4.8 °C 3.4 °C 990.1 hPa West 11.3 km/h 17.7 km/h 91 % 0.25 mm 0 W/m2
21:31 4.8 °C 3.4 °C 990.1 hPa West 11.3 km/h 17.7 km/h 91 % 0.25 mm 0 W/m2
21:36 4.8 °C 3.6 °C 990.1 hPa WNW 17.7 km/h 25.7 km/h 92 % 0.25 mm 0 W/m2
21:40 4.8 °C 3.6 °C 990.1 hPa West 16.1 km/h 24.1 km/h 92 % 0.25 mm 0 W/m2
21:45 4.8 °C 3.6 °C 990.1 hPa WNW 12.9 km/h 20.9 km/h 92 % 0 mm 0 W/m2
21:50 4.8 °C 3.6 °C 990.1 hPa West 12.9 km/h 17.7 km/h 92 % 0 mm 0 W/m2
21:51 4.8 °C 3.6 °C 990.1 hPa WNW 11.3 km/h 17.7 km/h 92 % 0 mm 0 W/m2
21:55 4.8 °C 3.6 °C 990.1 hPa West 12.9 km/h 17.7 km/h 92 % 0 mm 0 W/m2
21:57 4.8 °C 3.6 °C 990.1 hPa West 12.9 km/h 19.3 km/h 92 % 0 mm 0 W/m2
22:02 4.8 °C 3.6 °C 989.7 hPa West 11.3 km/h 19.3 km/h 92 % 0 mm 0 W/m2
22:06 4.8 °C 3.6 °C 989.7 hPa West 12.9 km/h 22.5 km/h 92 % 0 mm 0 W/m2
22:11 4.8 °C 3.6 °C 989.7 hPa WNW 14.5 km/h 29 km/h 92 % 0 mm 0 W/m2
22:12 4.8 °C 3.6 °C 989.7 hPa WNW 16.1 km/h 29 km/h 92 % 0 mm 0 W/m2
22:16 4.8 °C 3.6 °C 989.7 hPa WNW 17.7 km/h 29 km/h 92 % 0 mm 0 W/m2
22:17 4.8 °C 3.6 °C 989.7 hPa West 17.7 km/h 25.7 km/h 92 % 0 mm 0 W/m2
22:18 4.8 °C 3.6 °C 989.7 hPa WNW 17.7 km/h 25.7 km/h 92 % 0 mm 0 W/m2
22:23 4.8 °C 3.6 °C 989.7 hPa WNW 16.1 km/h 29 km/h 92 % 0 mm 0 W/m2
22:24 4.8 °C 3.6 °C 989.7 hPa WNW 16.1 km/h 29 km/h 92 % 0 mm 0 W/m2
22:27 4.8 °C 3.4 °C 989.7 hPa WNW 16.1 km/h 29 km/h 91 % 0 mm 0 W/m2
22:30 4.8 °C 3.4 °C 989.7 hPa WNW 20.9 km/h 33.8 km/h 91 % 0 mm 0 W/m2
22:35 4.8 °C 3.4 °C 989.7 hPa WNW 19.3 km/h 32.2 km/h 91 % 0 mm 0 W/m2
22:37 4.8 °C 3.4 °C 989.7 hPa WNW 20.9 km/h 32.2 km/h 91 % 0 mm 0 W/m2
22:42 4.8 °C 3.4 °C 989.7 hPa WNW 16.1 km/h 24.1 km/h 91 % 0 mm 0 W/m2
22:43 4.8 °C 3.4 °C 989.7 hPa WNW 17.7 km/h 25.7 km/h 91 % 0 mm 0 W/m2
22:49 4.8 °C 3.4 °C 990.1 hPa WNW 12.9 km/h 19.3 km/h 91 % 0 mm 0 W/m2
22:54 4.8 °C 3.4 °C 989.7 hPa West 16.1 km/h 22.5 km/h 91 % 0 mm 0 W/m2
22:55 4.8 °C 3.4 °C 989.7 hPa West 14.5 km/h 20.9 km/h 91 % 0 mm 0 W/m2
23:00 4.8 °C 3.4 °C 990.1 hPa WNW 16.1 km/h 29 km/h 91 % 0 mm 0 W/m2
23:05 4.8 °C 3.4 °C 990.1 hPa WNW 22.5 km/h 35.4 km/h 91 % 0 mm 0 W/m2
23:06 4.8 °C 3.4 °C 990.1 hPa WNW 20.9 km/h 32.2 km/h 91 % 0 mm 0 W/m2
23:10 4.9 °C 3.6 °C 990.1 hPa WNW 17.7 km/h 24.1 km/h 91 % 0 mm 0 W/m2
23:11 4.9 °C 3.6 °C 990.1 hPa WNW 16.1 km/h 24.1 km/h 91 % 0 mm 0 W/m2
23:16 4.9 °C 3.6 °C 990.1 hPa West 17.7 km/h 29 km/h 91 % 0 mm 0 W/m2
23:18 4.9 °C 3.6 °C 990.1 hPa WNW 19.3 km/h 30.6 km/h 91 % 0 mm 0 W/m2
23:19 4.9 °C 3.6 °C 990.1 hPa WNW 17.7 km/h 30.6 km/h 91 % 0 mm 0 W/m2
23:23 4.8 °C 3.4 °C 990.1 hPa WNW 20.9 km/h 30.6 km/h 91 % 0 mm 0 W/m2
23:28 4.8 °C 3.4 °C 990.1 hPa WNW 14.5 km/h 29 km/h 91 % 0 mm 0 W/m2
23:29 4.8 °C 3.4 °C 990.1 hPa WNW 14.5 km/h 29 km/h 91 % 0 mm 0 W/m2
23:34 4.8 °C 3.3 °C 990.1 hPa West 20.9 km/h 32.2 km/h 90 % 0 mm 0 W/m2
23:36 4.8 °C 3.4 °C 990.1 hPa West 20.9 km/h 38.6 km/h 91 % 0 mm 0 W/m2
23:38 4.8 °C 3.4 °C 990.1 hPa West 20.9 km/h 37 km/h 91 % 0 mm 0 W/m2
23:43 4.8 °C 3.3 °C 990.4 hPa WNW 20.9 km/h 37 km/h 90 % 0 mm 0 W/m2
23:48 4.7 °C 3.2 °C 990.4 hPa WNW 24.1 km/h 35.4 km/h 90 % 0 mm 0 W/m2
23:51 4.7 °C 3.2 °C 990.4 hPa WNW 17.7 km/h 29 km/h 90 % 0 mm 0 W/m2
23:56 4.7 °C 3.2 °C 990.4 hPa West 17.7 km/h 30.6 km/h 90 % 0 mm 0 W/m2
23:57 4.7 °C 3.2 °C 990.4 hPa West 16.1 km/h 22.5 km/h 90 % 0 mm 0 W/m2
Delerius-Weather
Compliments of Weather Underground - 3 mb

Data updates at regular intervals.